sensor_id;sensor_type;location;lat;lon;timestamp;pressure;altitude;pressure_sealevel;temperature;humidity
72370;BME280;60343;-32.030;115.880;2022-09-25T00:02:01;102423.84;;;16.16;57.68
72370;BME280;60343;-32.030;115.880;2022-09-25T00:04:29;102424.50;;;16.42;56.81
72370;BME280;60343;-32.030;115.880;2022-09-25T00:06:57;102421.94;;;16.73;55.56
72370;BME280;60343;-32.030;115.880;2022-09-25T00:09:25;102428.97;;;16.90;54.20
72370;BME280;60343;-32.030;115.880;2022-09-25T00:11:53;102432.44;;;17.15;51.81
72370;BME280;60343;-32.030;115.880;2022-09-25T00:14:21;102429.84;;;17.30;51.00
72370;BME280;60343;-32.030;115.880;2022-09-25T00:16:49;102428.00;;;17.53;51.33
72370;BME280;60343;-32.030;115.880;2022-09-25T00:19:24;102426.78;;;17.64;50.47
72370;BME280;60343;-32.030;115.880;2022-09-25T00:21:52;102422.47;;;18.00;50.97
72370;BME280;60343;-32.030;115.880;2022-09-25T00:24:20;102431.22;;;18.25;50.00
72370;BME280;60343;-32.030;115.880;2022-09-25T00:26:49;102426.47;;;18.41;49.83
72370;BME280;60343;-32.030;115.880;2022-09-25T00:29:18;102429.91;;;18.58;48.14
72370;BME280;60343;-32.030;115.880;2022-09-25T00:31:49;102429.00;;;18.80;48.19
72370;BME280;60343;-32.030;115.880;2022-09-25T00:34:24;102421.97;;;18.71;46.39
72370;BME280;60343;-32.030;115.880;2022-09-25T00:36:52;102424.69;;;19.01;46.82
72370;BME280;60343;-32.030;115.880;2022-09-25T00:39:21;102412.47;;;19.11;47.69
72370;BME280;60343;-32.030;115.880;2022-09-25T00:41:49;102424.00;;;19.28;47.79
72370;BME280;60343;-32.030;115.880;2022-09-25T00:47:30;102417.91;;;19.77;45.34
72370;BME280;60343;-32.030;115.880;2022-09-25T00:50:13;102422.63;;;19.89;46.44
72370;BME280;60343;-32.030;115.880;2022-09-25T00:52:43;102419.66;;;20.12;45.00
72370;BME280;60343;-32.030;115.880;2022-09-25T00:55:13;102427.47;;;20.36;44.50
72370;BME280;60343;-32.030;115.880;2022-09-25T00:57:43;102425.00;;;20.76;42.41
72370;BME280;60343;-32.030;115.880;2022-09-25T01:00:14;102419.72;;;21.09;42.48
72370;BME280;60343;-32.030;115.880;2022-09-25T01:02:44;102421.03;;;20.78;42.60
72370;BME280;60343;-32.030;115.880;2022-09-25T01:05:22;102422.91;;;20.78;42.72
72370;BME280;60343;-32.030;115.880;2022-09-25T01:07:52;102417.19;;;20.32;46.05
72370;BME280;60343;-32.030;115.880;2022-09-25T01:10:22;102415.03;;;20.06;43.41
72370;BME280;60343;-32.030;115.880;2022-09-25T01:12:51;102413.19;;;20.13;43.24
72370;BME280;60343;-32.030;115.880;2022-09-25T01:15:21;102411.13;;;20.15;42.26
72370;BME280;60343;-32.030;115.880;2022-09-25T01:17:59;102420.84;;;20.24;41.64
72370;BME280;60343;-32.030;115.880;2022-09-25T01:20:49;102417.22;;;20.38;43.71
72370;BME280;60343;-32.030;115.880;2022-09-25T01:23:36;102421.09;;;20.85;41.07
72370;BME280;60343;-32.030;115.880;2022-09-25T01:26:34;102421.00;;;21.13;40.52
72370;BME280;60343;-32.030;115.880;2022-09-25T01:29:15;102421.59;;;21.43;41.09
72370;BME280;60343;-32.030;115.880;2022-09-25T01:31:49;102417.75;;;21.24;41.86
72370;BME280;60343;-32.030;115.880;2022-09-25T01:34:25;102423.66;;;21.34;41.01
72370;BME280;60343;-32.030;115.880;2022-09-25T01:36:57;102423.19;;;21.17;40.92
72370;BME280;60343;-32.030;115.880;2022-09-25T01:39:33;102424.72;;;20.98;41.60
72370;BME280;60343;-32.030;115.880;2022-09-25T01:42:08;102428.84;;;20.88;41.26
72370;BME280;60343;-32.030;115.880;2022-09-25T01:44:45;102426.44;;;21.13;41.03
72370;BME280;60343;-32.030;115.880;2022-09-25T01:47:21;102422.16;;;21.25;42.05
72370;BME280;60343;-32.030;115.880;2022-09-25T01:49:54;102417.75;;;21.24;41.41
72370;BME280;60343;-32.030;115.880;2022-09-25T01:52:26;102422.88;;;21.53;40.58
72370;BME280;60343;-32.030;115.880;2022-09-25T01:54:57;102408.94;;;21.28;39.66
72370;BME280;60343;-32.030;115.880;2022-09-25T01:57:31;102418.78;;;21.16;41.10
72370;BME280;60343;-32.030;115.880;2022-09-25T02:00:08;102415.69;;;21.39;43.13
72370;BME280;60343;-32.030;115.880;2022-09-25T02:02:41;102415.53;;;21.54;41.78
72370;BME280;60343;-32.030;115.880;2022-09-25T02:05:15;102415.81;;;21.85;40.36
72370;BME280;60343;-32.030;115.880;2022-09-25T02:07:46;102411.25;;;22.18;39.16
72370;BME280;60343;-32.030;115.880;2022-09-25T02:10:21;102413.97;;;22.32;39.85
72370;BME280;60343;-32.030;115.880;2022-09-25T02:12:54;102415.84;;;22.51;39.45
72370;BME280;60343;-32.030;115.880;2022-09-25T02:15:28;102413.09;;;22.77;38.54
72370;BME280;60343;-32.030;115.880;2022-09-25T02:18:00;102415.25;;;23.20;38.60
72370;BME280;60343;-32.030;115.880;2022-09-25T02:20:29;102418.28;;;23.56;38.44
72370;BME280;60343;-32.030;115.880;2022-09-25T02:23:05;102416.31;;;23.94;37.95
72370;BME280;60343;-32.030;115.880;2022-09-25T02:25:39;102412.84;;;23.81;35.79
72370;BME280;60343;-32.030;115.880;2022-09-25T02:28:08;102413.25;;;23.02;37.58
72370;BME280;60343;-32.030;115.880;2022-09-25T02:30:47;102399.66;;;22.82;39.84
72370;BME280;60343;-32.030;115.880;2022-09-25T02:33:16;102400.38;;;23.09;37.16
72370;BME280;60343;-32.030;115.880;2022-09-25T02:35:44;102391.66;;;22.74;38.58
72370;BME280;60343;-32.030;115.880;2022-09-25T02:38:12;102389.13;;;22.92;38.90
72370;BME280;60343;-32.030;115.880;2022-09-25T02:40:45;102391.28;;;22.71;39.78
72370;BME280;60343;-32.030;115.880;2022-09-25T02:43:23;102395.09;;;22.37;39.19
72370;BME280;60343;-32.030;115.880;2022-09-25T02:46:07;102393.56;;;21.88;39.80
72370;BME280;60343;-32.030;115.880;2022-09-25T02:48:46;102388.09;;;21.62;41.57
72370;BME280;60343;-32.030;115.880;2022-09-25T02:51:26;102396.44;;;21.54;41.34
72370;BME280;60343;-32.030;115.880;2022-09-25T02:54:02;102387.25;;;21.55;40.98
72370;BME280;60343;-32.030;115.880;2022-09-25T02:56:34;102390.59;;;21.57;42.83
72370;BME280;60343;-32.030;115.880;2022-09-25T02:59:08;102383.75;;;22.00;40.89
72370;BME280;60343;-32.030;115.880;2022-09-25T03:01:44;102366.69;;;22.77;39.58
72370;BME280;60343;-32.030;115.880;2022-09-25T03:04:15;102351.25;;;23.47;36.82
72370;BME280;60343;-32.030;115.880;2022-09-25T03:06:44;102349.63;;;23.33;37.13
72370;BME280;60343;-32.030;115.880;2022-09-25T03:09:14;102349.34;;;23.47;40.30
72370;BME280;60343;-32.030;115.880;2022-09-25T03:11:42;102349.47;;;23.59;38.21
72370;BME280;60343;-32.030;115.880;2022-09-25T03:14:11;102345.25;;;23.63;38.58
72370;BME280;60343;-32.030;115.880;2022-09-25T03:16:47;102350.00;;;23.36;37.99
72370;BME280;60343;-32.030;115.880;2022-09-25T03:19:16;102351.19;;;23.16;38.83
72370;BME280;60343;-32.030;115.880;2022-09-25T03:21:45;102355.97;;;22.82;40.47
72370;BME280;60343;-32.030;115.880;2022-09-25T03:24:13;102362.97;;;22.25;40.80
72370;BME280;60343;-32.030;115.880;2022-09-25T03:26:41;102360.44;;;21.71;41.86
72370;BME280;60343;-32.030;115.880;2022-09-25T03:29:10;102358.75;;;21.90;42.36
72370;BME280;60343;-32.030;115.880;2022-09-25T03:31:44;102347.44;;;21.87;41.94
72370;BME280;60343;-32.030;115.880;2022-09-25T03:34:13;102352.88;;;21.67;43.03
72370;BME280;60343;-32.030;115.880;2022-09-25T03:36:42;102353.69;;;21.54;44.44
72370;BME280;60343;-32.030;115.880;2022-09-25T03:39:10;102349.72;;;21.57;42.20
72370;BME280;60343;-32.030;115.880;2022-09-25T03:41:38;102344.72;;;22.33;41.33
72370;BME280;60343;-32.030;115.880;2022-09-25T03:44:06;102340.19;;;22.84;40.37
72370;BME280;60343;-32.030;115.880;2022-09-25T03:46:35;102342.88;;;22.97;40.44
72370;BME280;60343;-32.030;115.880;2022-09-25T03:49:10;102348.28;;;22.27;41.85
72370;BME280;60343;-32.030;115.880;2022-09-25T03:51:38;102346.41;;;21.94;42.63
72370;BME280;60343;-32.030;115.880;2022-09-25T03:54:06;102350.59;;;21.90;43.23
72370;BME280;60343;-32.030;115.880;2022-09-25T03:56:35;102348.06;;;21.89;43.20
72370;BME280;60343;-32.030;115.880;2022-09-25T03:59:03;102351.03;;;21.94;44.81
72370;BME280;60343;-32.030;115.880;2022-09-25T04:01:31;102353.78;;;22.07;44.16
72370;BME280;60343;-32.030;115.880;2022-09-25T04:03:59;102348.50;;;22.25;44.13
72370;BME280;60343;-32.030;115.880;2022-09-25T04:06:33;102354.19;;;22.17;44.55
72370;BME280;60343;-32.030;115.880;2022-09-25T04:09:01;102357.75;;;22.17;44.98
72370;BME280;60343;-32.030;115.880;2022-09-25T04:11:29;102353.34;;;22.23;44.21
72370;BME280;60343;-32.030;115.880;2022-09-25T04:13:57;102361.28;;;21.85;45.10
72370;BME280;60343;-32.030;115.880;2022-09-25T04:16:25;102352.03;;;21.73;45.62
72370;BME280;60343;-32.030;115.880;2022-09-25T04:18:53;102359.97;;;21.42;45.87
72370;BME280;60343;-32.030;115.880;2022-09-25T04:21:21;102347.75;;;21.24;47.53
72370;BME280;60343;-32.030;115.880;2022-09-25T04:23:55;102349.28;;;21.53;46.91
72370;BME280;60343;-32.030;115.880;2022-09-25T04:26:23;102347.00;;;21.70;46.49
72370;BME280;60343;-32.030;115.880;2022-09-25T04:28:51;102342.88;;;22.07;46.73
72370;BME280;60343;-32.030;115.880;2022-09-25T04:31:19;102340.31;;;22.18;44.43
72370;BME280;60343;-32.030;115.880;2022-09-25T04:33:47;102343.69;;;22.20;44.58
72370;BME280;60343;-32.030;115.880;2022-09-25T04:36:16;102344.72;;;22.19;44.03
72370;BME280;60343;-32.030;115.880;2022-09-25T04:38:45;102343.69;;;22.07;44.45
72370;BME280;60343;-32.030;115.880;2022-09-25T04:41:19;102339.72;;;21.97;44.63
72370;BME280;60343;-32.030;115.880;2022-09-25T04:43:47;102331.94;;;21.87;45.18
72370;BME280;60343;-32.030;115.880;2022-09-25T04:46:15;102330.88;;;21.81;45.72
72370;BME280;60343;-32.030;115.880;2022-09-25T04:48:45;102336.50;;;21.54;45.63
72370;BME280;60343;-32.030;115.880;2022-09-25T04:51:13;102334.41;;;21.49;46.37
72370;BME280;60343;-32.030;115.880;2022-09-25T04:53:41;102331.03;;;21.40;46.32
72370;BME280;60343;-32.030;115.880;2022-09-25T04:56:09;102342.88;;;21.13;47.31
72370;BME280;60343;-32.030;115.880;2022-09-25T04:58:44;102332.19;;;21.12;47.65
72370;BME280;60343;-32.030;115.880;2022-09-25T05:01:12;102332.34;;;21.77;47.13
72370;BME280;60343;-32.030;115.880;2022-09-25T05:03:40;102326.22;;;22.48;46.07
72370;BME280;60343;-32.030;115.880;2022-09-25T05:06:09;102332.03;;;22.71;44.05
72370;BME280;60343;-32.030;115.880;2022-09-25T05:08:37;102325.69;;;22.84;44.80
72370;BME280;60343;-32.030;115.880;2022-09-25T05:11:05;102331.75;;;22.92;44.59
72370;BME280;60343;-32.030;115.880;2022-09-25T05:13:33;102318.22;;;22.53;45.12
72370;BME280;60343;-32.030;115.880;2022-09-25T05:16:07;102338.63;;;21.71;46.24
72370;BME280;60343;-32.030;115.880;2022-09-25T05:18:35;102323.09;;;21.85;45.71
72370;BME280;60343;-32.030;115.880;2022-09-25T05:21:04;102319.47;;;22.57;45.33
72370;BME280;60343;-32.030;115.880;2022-09-25T05:23:32;102327.34;;;22.91;43.21
72370;BME280;60343;-32.030;115.880;2022-09-25T05:26:00;102326.66;;;23.02;42.75
72370;BME280;60343;-32.030;115.880;2022-09-25T05:28:28;102327.28;;;23.04;42.25
72370;BME280;60343;-32.030;115.880;2022-09-25T05:30:59;102318.03;;;23.43;42.03
72370;BME280;60343;-32.030;115.880;2022-09-25T05:33:33;102316.22;;;23.62;42.83
72370;BME280;60343;-32.030;115.880;2022-09-25T05:36:02;102325.06;;;22.88;45.42
72370;BME280;60343;-32.030;115.880;2022-09-25T05:38:33;102323.91;;;22.45;46.17
72370;BME280;60343;-32.030;115.880;2022-09-25T05:41:02;102320.56;;;23.00;45.72
72370;BME280;60343;-32.030;115.880;2022-09-25T05:43:31;102312.19;;;23.65;43.13
72370;BME280;60343;-32.030;115.880;2022-09-25T05:45:59;102308.44;;;23.28;42.61
72370;BME280;60343;-32.030;115.880;2022-09-25T05:48:33;102314.72;;;22.19;45.60
72370;BME280;60343;-32.030;115.880;2022-09-25T05:51:01;102311.97;;;21.73;47.06
72370;BME280;60343;-32.030;115.880;2022-09-25T05:53:30;102301.78;;;22.66;46.03
72370;BME280;60343;-32.030;115.880;2022-09-25T05:55:59;102308.41;;;22.32;45.91
72370;BME280;60343;-32.030;115.880;2022-09-25T05:58:29;102303.84;;;22.13;46.59
72370;BME280;60343;-32.030;115.880;2022-09-25T06:01:00;102300.41;;;23.01;44.76
72370;BME280;60343;-32.030;115.880;2022-09-25T06:03:34;102295.28;;;23.74;43.89
72370;BME280;60343;-32.030;115.880;2022-09-25T06:06:02;102293.28;;;23.32;43.51
72370;BME280;60343;-32.030;115.880;2022-09-25T06:08:30;102289.28;;;23.66;43.69
72370;BME280;60343;-32.030;115.880;2022-09-25T06:10:58;102294.06;;;23.39;42.69
72370;BME280;60343;-32.030;115.880;2022-09-25T06:13:27;102281.53;;;23.25;42.41
72370;BME280;60343;-32.030;115.880;2022-09-25T06:15:55;102279.97;;;23.73;40.87
72370;BME280;60343;-32.030;115.880;2022-09-25T06:18:24;102279.63;;;23.63;40.93
72370;BME280;60343;-32.030;115.880;2022-09-25T06:20:59;102283.94;;;22.77;43.11
72370;BME280;60343;-32.030;115.880;2022-09-25T06:23:28;102285.34;;;22.15;43.33
72370;BME280;60343;-32.030;115.880;2022-09-25T06:26:00;102279.09;;;21.95;44.44
72370;BME280;60343;-32.030;115.880;2022-09-25T06:28:31;102281.91;;;22.39;44.37
72370;BME280;60343;-32.030;115.880;2022-09-25T06:31:04;102280.22;;;23.02;42.89
72370;BME280;60343;-32.030;115.880;2022-09-25T06:33:33;102271.16;;;23.08;41.61
72370;BME280;60343;-32.030;115.880;2022-09-25T06:36:09;102275.53;;;22.65;42.80
72370;BME280;60343;-32.030;115.880;2022-09-25T06:38:37;102272.16;;;21.92;43.66
72370;BME280;60343;-32.030;115.880;2022-09-25T06:41:05;102272.56;;;21.43;44.88
72370;BME280;60343;-32.030;115.880;2022-09-25T06:43:33;102273.81;;;21.27;46.11
72370;BME280;60343;-32.030;115.880;2022-09-25T06:46:02;102272.34;;;21.45;46.20
72370;BME280;60343;-32.030;115.880;2022-09-25T06:48:30;102269.91;;;22.53;43.19
72370;BME280;60343;-32.030;115.880;2022-09-25T06:51:00;102268.72;;;23.57;39.91
72370;BME280;60343;-32.030;115.880;2022-09-25T06:53:34;102263.94;;;24.74;38.82
72370;BME280;60343;-32.030;115.880;2022-09-25T06:56:03;102264.53;;;25.36;36.27
72370;BME280;60343;-32.030;115.880;2022-09-25T06:58:31;102268.34;;;25.35;35.78
72370;BME280;60343;-32.030;115.880;2022-09-25T07:00:59;102269.03;;;25.72;35.33
72370;BME280;60343;-32.030;115.880;2022-09-25T07:03:27;102259.59;;;25.68;35.52
72370;BME280;60343;-32.030;115.880;2022-09-25T07:05:58;102254.34;;;25.67;36.32
72370;BME280;60343;-32.030;115.880;2022-09-25T07:08:26;102256.03;;;25.91;34.14
72370;BME280;60343;-32.030;115.880;2022-09-25T07:11:00;102260.81;;;25.84;34.63
72370;BME280;60343;-32.030;115.880;2022-09-25T07:13:35;102261.75;;;25.78;34.77
72370;BME280;60343;-32.030;115.880;2022-09-25T07:16:04;102273.97;;;25.52;34.90
72370;BME280;60343;-32.030;115.880;2022-09-25T07:18:33;102259.59;;;25.56;33.74
72370;BME280;60343;-32.030;115.880;2022-09-25T07:21:02;102265.47;;;25.95;33.57
72370;BME280;60343;-32.030;115.880;2022-09-25T07:23:31;102268.28;;;25.53;33.37
72370;BME280;60343;-32.030;115.880;2022-09-25T07:26:11;102265.31;;;25.13;34.74
72370;BME280;60343;-32.030;115.880;2022-09-25T07:28:40;102270.75;;;25.43;35.90
72370;BME280;60343;-32.030;115.880;2022-09-25T07:31:13;102269.88;;;25.19;35.75
72370;BME280;60343;-32.030;115.880;2022-09-25T07:33:41;102261.88;;;25.59;35.04
72370;BME280;60343;-32.030;115.880;2022-09-25T07:36:11;102269.69;;;25.44;35.44
72370;BME280;60343;-32.030;115.880;2022-09-25T07:38:39;102269.88;;;25.31;35.22
72370;BME280;60343;-32.030;115.880;2022-09-25T07:41:13;102279.00;;;25.13;35.65
72370;BME280;60343;-32.030;115.880;2022-09-25T07:43:41;102271.44;;;24.97;35.17
72370;BME280;60343;-32.030;115.880;2022-09-25T07:46:10;102279.88;;;25.26;35.06
72370;BME280;60343;-32.030;115.880;2022-09-25T07:48:38;102279.75;;;25.20;35.41
72370;BME280;60343;-32.030;115.880;2022-09-25T07:51:08;102280.25;;;25.29;35.56
72370;BME280;60343;-32.030;115.880;2022-09-25T07:53:37;102280.31;;;25.52;35.07
72370;BME280;60343;-32.030;115.880;2022-09-25T07:56:10;102287.78;;;24.86;35.91
72370;BME280;60343;-32.030;115.880;2022-09-25T07:58:39;102282.56;;;24.66;36.05
72370;BME280;60343;-32.030;115.880;2022-09-25T08:01:10;102287.28;;;24.41;36.03
72370;BME280;60343;-32.030;115.880;2022-09-25T08:03:38;102295.91;;;24.62;35.52
72370;BME280;60343;-32.030;115.880;2022-09-25T08:06:08;102285.09;;;24.67;34.49
72370;BME280;60343;-32.030;115.880;2022-09-25T08:08:39;102274.44;;;24.77;34.38
72370;BME280;60343;-32.030;115.880;2022-09-25T08:11:14;102286.63;;;24.63;35.13
72370;BME280;60343;-32.030;115.880;2022-09-25T08:13:43;102280.09;;;24.64;35.41
72370;BME280;60343;-32.030;115.880;2022-09-25T08:16:12;102278.88;;;24.42;35.89
72370;BME280;60343;-32.030;115.880;2022-09-25T08:18:41;102282.09;;;24.14;36.57
72370;BME280;60343;-32.030;115.880;2022-09-25T08:21:10;102283.94;;;23.95;37.24
72370;BME280;60343;-32.030;115.880;2022-09-25T08:23:38;102284.63;;;23.91;37.20
72370;BME280;60343;-32.030;115.880;2022-09-25T08:26:12;102295.53;;;23.48;38.15
72370;BME280;60343;-32.030;115.880;2022-09-25T08:28:40;102303.09;;;23.08;40.26
72370;BME280;60343;-32.030;115.880;2022-09-25T08:31:08;102305.03;;;22.37;41.83
72370;BME280;60343;-32.030;115.880;2022-09-25T08:33:36;102313.66;;;21.61;43.58
72370;BME280;60343;-32.030;115.880;2022-09-25T08:36:05;102313.00;;;21.39;44.27
72370;BME280;60343;-32.030;115.880;2022-09-25T08:38:33;102325.88;;;21.05;45.01
72370;BME280;60343;-32.030;115.880;2022-09-25T08:41:03;102327.19;;;20.68;45.42
72370;BME280;60343;-32.030;115.880;2022-09-25T08:43:45;102325.63;;;20.45;45.32
72370;BME280;60343;-32.030;115.880;2022-09-25T08:46:19;102326.22;;;20.47;45.18
72370;BME280;60343;-32.030;115.880;2022-09-25T08:48:54;102332.84;;;20.73;44.36
72370;BME280;60343;-32.030;115.880;2022-09-25T08:51:23;102345.25;;;20.75;44.99
72370;BME280;60343;-32.030;115.880;2022-09-25T08:53:51;102344.06;;;20.91;45.71
72370;BME280;60343;-32.030;115.880;2022-09-25T08:56:19;102347.84;;;20.96;46.07
72370;BME280;60343;-32.030;115.880;2022-09-25T08:58:56;102351.56;;;20.48;47.91
72370;BME280;60343;-32.030;115.880;2022-09-25T09:01:43;102355.56;;;20.24;48.60
72370;BME280;60343;-32.030;115.880;2022-09-25T09:04:18;102349.66;;;19.93;49.22
72370;BME280;60343;-32.030;115.880;2022-09-25T09:06:49;102348.78;;;19.64;51.03
72370;BME280;60343;-32.030;115.880;2022-09-25T09:09:21;102353.63;;;19.48;51.73
72370;BME280;60343;-32.030;115.880;2022-09-25T09:11:53;102360.31;;;19.31;52.61
72370;BME280;60343;-32.030;115.880;2022-09-25T09:14:30;102363.16;;;19.08;53.03
72370;BME280;60343;-32.030;115.880;2022-09-25T09:17:01;102369.59;;;18.85;54.33
72370;BME280;60343;-32.030;115.880;2022-09-25T09:19:32;102365.19;;;18.70;54.38
72370;BME280;60343;-32.030;115.880;2022-09-25T09:22:07;102371.78;;;18.53;55.83
72370;BME280;60343;-32.030;115.880;2022-09-25T09:24:47;102372.06;;;18.43;56.64
72370;BME280;60343;-32.030;115.880;2022-09-25T09:27:42;102383.38;;;18.32;57.34
72370;BME280;60343;-32.030;115.880;2022-09-25T09:30:23;102384.09;;;18.26;57.74
72370;BME280;60343;-32.030;115.880;2022-09-25T09:33:12;102392.88;;;18.13;58.50
72370;BME280;60343;-32.030;115.880;2022-09-25T09:35:51;102404.63;;;18.06;59.04
72370;BME280;60343;-32.030;115.880;2022-09-25T09:38:28;102400.66;;;17.93;58.85
72370;BME280;60343;-32.030;115.880;2022-09-25T09:41:10;102408.19;;;17.83;59.84
72370;BME280;60343;-32.030;115.880;2022-09-25T09:43:53;102411.47;;;17.71;60.57
72370;BME280;60343;-32.030;115.880;2022-09-25T09:46:44;102410.06;;;17.52;61.30
72370;BME280;60343;-32.030;115.880;2022-09-25T09:49:20;102408.06;;;17.46;61.52
72370;BME280;60343;-32.030;115.880;2022-09-25T09:51:59;102416.72;;;17.41;62.09
72370;BME280;60343;-32.030;115.880;2022-09-25T09:54:32;102419.63;;;17.40;62.23
72370;BME280;60343;-32.030;115.880;2022-09-25T09:57:04;102417.97;;;17.31;62.46
72370;BME280;60343;-32.030;115.880;2022-09-25T09:59:43;102420.78;;;17.14;63.07
72370;BME280;60343;-32.030;115.880;2022-09-25T10:02:29;102422.47;;;17.07;62.59
72370;BME280;60343;-32.030;115.880;2022-09-25T10:04:59;102437.38;;;17.03;62.88
72370;BME280;60343;-32.030;115.880;2022-09-25T10:07:29;102432.72;;;16.89;63.52
72370;BME280;60343;-32.030;115.880;2022-09-25T10:09:58;102432.72;;;16.89;62.21
72370;BME280;60343;-32.030;115.880;2022-09-25T10:12:29;102444.53;;;16.88;62.08
72370;BME280;60343;-32.030;115.880;2022-09-25T10:15:00;102438.63;;;16.85;62.24
72370;BME280;60343;-32.030;115.880;2022-09-25T10:17:36;102443.56;;;16.73;61.82
72370;BME280;60343;-32.030;115.880;2022-09-25T10:20:14;102456.75;;;16.68;61.63
72370;BME280;60343;-32.030;115.880;2022-09-25T10:22:45;102454.22;;;16.66;61.90
72370;BME280;60343;-32.030;115.880;2022-09-25T10:25:14;102452.53;;;16.49;62.65
72370;BME280;60343;-32.030;115.880;2022-09-25T10:28:00;102457.41;;;16.46;63.43
72370;BME280;60343;-32.030;115.880;2022-09-25T10:30:47;102460.47;;;16.43;63.50
72370;BME280;60343;-32.030;115.880;2022-09-25T10:33:23;102463.66;;;16.46;63.31
72370;BME280;60343;-32.030;115.880;2022-09-25T10:35:52;102467.41;;;16.37;63.36
72370;BME280;60343;-32.030;115.880;2022-09-25T10:47:31;102472.97;;;16.11;64.78
72370;BME280;60343;-32.030;115.880;2022-09-25T10:50:11;102472.63;;;15.98;64.64
72370;BME280;60343;-32.030;115.880;2022-09-25T10:52:56;102472.44;;;16.00;64.86
72370;BME280;60343;-32.030;115.880;2022-09-25T10:55:27;102470.44;;;16.02;64.51
72370;BME280;60343;-32.030;115.880;2022-09-25T10:58:01;102481.41;;;16.00;64.49
72370;BME280;60343;-32.030;115.880;2022-09-25T11:00:41;102480.38;;;15.93;65.32
72370;BME280;60343;-32.030;115.880;2022-09-25T11:03:17;102477.84;;;15.83;65.70
72370;BME280;60343;-32.030;115.880;2022-09-25T11:05:54;102481.91;;;15.87;65.47
72370;BME280;60343;-32.030;115.880;2022-09-25T11:08:25;102483.06;;;15.77;66.07
72370;BME280;60343;-32.030;115.880;2022-09-25T11:10:59;102469.19;;;15.64;66.51
72370;BME280;60343;-32.030;115.880;2022-09-25T11:13:29;102486.47;;;15.45;66.88
72370;BME280;60343;-32.030;115.880;2022-09-25T11:15:59;102484.25;;;15.40;67.82
72370;BME280;60343;-32.030;115.880;2022-09-25T11:18:39;102488.63;;;15.33;67.66
72370;BME280;60343;-32.030;115.880;2022-09-25T11:21:23;102493.63;;;15.20;68.14
72370;BME280;60343;-32.030;115.880;2022-09-25T11:24:04;102491.53;;;15.06;68.33
72370;BME280;60343;-32.030;115.880;2022-09-25T11:26:39;102502.56;;;14.95;69.45
72370;BME280;60343;-32.030;115.880;2022-09-25T11:29:14;102501.31;;;14.81;69.36
72370;BME280;60343;-32.030;115.880;2022-09-25T11:31:48;102505.97;;;14.71;69.89
72370;BME280;60343;-32.030;115.880;2022-09-25T11:34:26;102512.09;;;14.55;70.35
72370;BME280;60343;-32.030;115.880;2022-09-25T11:37:09;102512.78;;;14.40;70.50
72370;BME280;60343;-32.030;115.880;2022-09-25T11:39:47;102511.47;;;14.26;70.80
72370;BME280;60343;-32.030;115.880;2022-09-25T11:42:20;102520.09;;;14.12;71.04
72370;BME280;60343;-32.030;115.880;2022-09-25T11:44:56;102526.69;;;14.00;71.89
72370;BME280;60343;-32.030;115.880;2022-09-25T11:47:30;102523.22;;;13.90;71.73
72370;BME280;60343;-32.030;115.880;2022-09-25T11:50:01;102528.75;;;13.88;72.55
72370;BME280;60343;-32.030;115.880;2022-09-25T11:52:37;102544.69;;;13.82;73.26
72370;BME280;60343;-32.030;115.880;2022-09-25T12:01:18;102554.34;;;13.74;74.54
72370;BME280;60343;-32.030;115.880;2022-09-25T12:04:02;102558.19;;;13.72;74.84
72370;BME280;60343;-32.030;115.880;2022-09-25T12:06:50;102562.59;;;13.73;75.44
72370;BME280;60343;-32.030;115.880;2022-09-25T12:09:39;102561.13;;;13.79;75.54
72370;BME280;60343;-32.030;115.880;2022-09-25T12:12:18;102553.69;;;13.90;75.86
72370;BME280;60343;-32.030;115.880;2022-09-25T12:14:52;102575.53;;;13.87;75.44
72370;BME280;60343;-32.030;115.880;2022-09-25T12:17:27;102566.50;;;13.79;75.57
72370;BME280;60343;-32.030;115.880;2022-09-25T12:20:01;102569.56;;;13.66;75.53
72370;BME280;60343;-32.030;115.880;2022-09-25T12:22:46;102568.63;;;13.57;75.98
72370;BME280;60343;-32.030;115.880;2022-09-25T12:25:39;102571.63;;;13.45;76.63
72370;BME280;60343;-32.030;115.880;2022-09-25T12:28:17;102569.97;;;13.34;77.33
72370;BME280;60343;-32.030;115.880;2022-09-25T12:30:53;102576.53;;;13.22;77.67
72370;BME280;60343;-32.030;115.880;2022-09-25T12:33:31;102584.63;;;13.12;78.12
72370;BME280;60343;-32.030;115.880;2022-09-25T12:36:06;102580.66;;;13.07;78.21
72370;BME280;60343;-32.030;115.880;2022-09-25T12:38:41;102582.22;;;13.00;78.05
72370;BME280;60343;-32.030;115.880;2022-09-25T12:41:21;102583.63;;;12.94;77.97
72370;BME280;60343;-32.030;115.880;2022-09-25T12:43:54;102585.06;;;12.88;78.54
72370;BME280;60343;-32.030;115.880;2022-09-25T12:46:28;102588.19;;;12.84;78.98
72370;BME280;60343;-32.030;115.880;2022-09-25T12:49:01;102585.78;;;12.81;79.14
72370;BME280;60343;-32.030;115.880;2022-09-25T12:51:35;102598.25;;;12.82;79.24
72370;BME280;60343;-32.030;115.880;2022-09-25T12:54:11;102601.47;;;12.85;78.72
72370;BME280;60343;-32.030;115.880;2022-09-25T12:56:52;102599.94;;;12.93;78.97
72370;BME280;60343;-32.030;115.880;2022-09-25T12:59:29;102599.59;;;13.05;79.66
72370;BME280;60343;-32.030;115.880;2022-09-25T13:02:03;102601.84;;;13.10;79.38
72370;BME280;60343;-32.030;115.880;2022-09-25T13:04:47;102600.16;;;13.18;79.10
72370;BME280;60343;-32.030;115.880;2022-09-25T13:07:23;102601.88;;;13.19;78.67